createdAt,value
2023-01-15T00:00:52.744Z,101732.94
2023-01-15T00:03:19.244Z,101733.78
2023-01-15T00:05:45.696Z,101739.16
2023-01-15T00:08:12.315Z,101738.22
2023-01-15T00:10:38.874Z,101738.00
2023-01-15T00:13:05.349Z,101733.44
2023-01-15T00:15:31.894Z,101727.91
2023-01-15T00:18:14.292Z,101735.75
2023-01-15T00:20:40.867Z,101731.25
2023-01-15T00:23:27.410Z,101724.09
2023-01-15T00:26:14.981Z,101720.38
2023-01-15T00:28:41.871Z,101727.53
2023-01-15T00:31:08.337Z,101713.19
2023-01-15T00:33:34.860Z,101713.94
2023-01-15T00:36:01.410Z,101712.25
2023-01-15T00:38:27.863Z,101717.47
2023-01-15T00:40:54.379Z,101707.66
2023-01-15T00:43:20.876Z,101705.94
2023-01-15T00:45:47.428Z,101706.69
2023-01-15T00:48:14.076Z,101710.34
2023-01-15T00:50:40.692Z,101696.06
2023-01-15T00:53:07.235Z,101699.63
2023-01-15T00:55:33.757Z,101691.59
2023-01-15T00:58:00.393Z,101694.28
2023-01-15T01:00:26.866Z,101687.19
2023-01-15T01:02:53.694Z,101696.06
2023-01-15T01:05:20.264Z,101683.66
2023-01-15T01:07:46.789Z,101686.34
2023-01-15T01:10:13.357Z,101695.13
2023-01-15T01:12:39.989Z,101683.66
2023-01-15T01:15:07.041Z,101679.25
2023-01-15T01:17:33.871Z,101678.47
2023-01-15T01:20:00.561Z,101670.38
2023-01-15T01:22:27.788Z,101673.13
2023-01-15T01:24:54.356Z,101671.59
2023-01-15T01:27:20.814Z,101682.41
2023-01-15T01:29:47.355Z,101677.06
2023-01-15T01:32:13.876Z,101669.88
2023-01-15T01:34:40.464Z,101679.81
2023-01-15T01:37:07.011Z,101672.84
2023-01-15T01:39:33.507Z,101676.53
2023-01-15T01:42:00.027Z,101669.41
2023-01-15T01:44:32.556Z,101670.25
2023-01-15T01:47:05.761Z,101665.00
2023-01-15T01:49:32.387Z,101666.91
2023-01-15T01:52:02.906Z,101665.19
2023-01-15T01:54:31.240Z,101655.34
2023-01-15T01:56:58.111Z,101649.06
2023-01-15T01:59:25.237Z,101640.13
2023-01-15T02:01:52.119Z,101637.38
2023-01-15T02:04:20.674Z,101645.41
2023-01-15T02:06:47.313Z,101637.47
2023-01-15T02:09:13.910Z,101640.13
2023-01-15T02:11:40.500Z,101638.44
2023-01-15T02:14:19.702Z,101626.75
2023-01-15T02:16:56.571Z,101618.56
2023-01-15T02:20:00.660Z,101622.94
2023-01-15T02:22:27.156Z,101621.88
2023-01-15T02:25:13.827Z,101624.47
2023-01-15T02:27:44.507Z,101621.78
2023-01-15T02:30:34.152Z,101619.88
2023-01-15T02:33:06.878Z,101620.66
2023-01-15T02:36:01.162Z,101612.63
2023-01-15T02:38:33.926Z,101609.84
2023-01-15T02:41:01.478Z,101612.34
2023-01-15T02:43:29.925Z,101610.63
2023-01-15T02:45:58.562Z,101604.50
2023-01-15T02:48:28.016Z,101606.50
2023-01-15T02:50:59.417Z,101593.22
2023-01-15T02:53:29.878Z,101593.22
2023-01-15T02:56:01.674Z,101594.09
2023-01-15T02:58:33.363Z,101594.28
2023-01-15T03:01:01.953Z,101581.19
2023-01-15T03:03:36.560Z,101576.03
2023-01-15T03:06:11.235Z,101574.22
2023-01-15T03:08:37.919Z,101563.31
2023-01-15T03:11:15.510Z,101560.25
2023-01-15T03:13:45.202Z,101563.50
2023-01-15T03:16:35.430Z,101567.59
2023-01-15T03:19:01.901Z,101558.63
2023-01-15T03:21:36.204Z,101549.75
2023-01-15T03:24:05.090Z,101545.25
2023-01-15T03:26:31.987Z,101549.84
2023-01-15T03:28:58.794Z,101547.44
2023-01-15T03:31:25.373Z,101540.56
2023-01-15T03:33:51.913Z,101544.94
2023-01-15T03:36:18.468Z,101521.84
2023-01-15T03:38:47.297Z,101519.34
2023-01-15T03:41:13.912Z,101523.09
2023-01-15T03:44:12.905Z,101518.66
2023-01-15T03:47:04.677Z,101519.84
2023-01-15T03:49:47.987Z,101514.59
2023-01-15T03:52:28.297Z,101519.34
2023-01-15T03:55:16.925Z,101525.00
2023-01-15T03:57:52.472Z,101509.81
2023-01-15T04:00:28.001Z,101498.91
2023-01-15T04:02:55.573Z,101500.63
2023-01-15T04:05:23.210Z,101502.34
2023-01-15T04:07:50.278Z,101499.88
2023-01-15T04:10:17.076Z,101499.09
2023-01-15T04:12:43.583Z,101494.63
2023-01-15T04:15:12.142Z,101499.09
2023-01-15T04:17:39.129Z,101496.41
2023-01-15T04:20:06.333Z,101500.84
2023-01-15T04:22:33.029Z,101493.66
2023-01-15T04:24:59.540Z,101493.47
2023-01-15T04:27:27.299Z,101483.53
2023-01-15T04:29:53.965Z,101486.97
2023-01-15T04:32:20.550Z,101482.28
2023-01-15T04:34:47.071Z,101480.28
2023-01-15T04:37:16.145Z,101477.50
2023-01-15T04:39:42.835Z,101465.81
2023-01-15T04:42:32.049Z,101470.22
2023-01-15T04:44:58.572Z,101473.94
2023-01-15T04:47:27.956Z,101460.69
2023-01-15T04:49:54.464Z,101454.56
2023-01-15T04:52:21.084Z,101459.91
2023-01-15T04:54:54.806Z,101447.41
2023-01-15T04:57:21.346Z,101446.53
2023-01-15T04:59:47.897Z,101451.03
2023-01-15T05:02:15.492Z,101458.41
2023-01-15T05:04:42.287Z,101458.50
2023-01-15T05:07:09.897Z,101452.28
2023-01-15T05:09:36.677Z,101454.88
2023-01-15T05:12:03.547Z,101450.47
2023-01-15T05:14:30.218Z,101452.19
2023-01-15T05:16:56.870Z,101448.75
2023-01-15T05:19:23.395Z,101434.50
2023-01-15T05:21:50.193Z,101429.38
2023-01-15T05:24:17.750Z,101430.50
2023-01-15T05:26:44.765Z,101420.75
2023-01-15T05:29:13.695Z,101415.53
2023-01-15T05:31:41.918Z,101417.53
2023-01-15T05:34:09.840Z,101416.69
2023-01-15T05:36:37.754Z,101420.22
2023-01-15T05:39:04.894Z,101417.31
2023-01-15T05:41:49.612Z,101423.63
2023-01-15T05:44:22.983Z,101418.38
2023-01-15T05:46:51.176Z,101413.16
2023-01-15T05:49:20.240Z,101411.34
2023-01-15T05:51:47.318Z,101415.72
2023-01-15T05:54:17.087Z,101413.16
2023-01-15T05:56:43.670Z,101402.47
2023-01-15T05:59:10.184Z,101396.34
2023-01-15T06:01:36.896Z,101396.53
2023-01-15T06:04:05.131Z,101395.59
2023-01-15T06:06:32.076Z,101383.72
2023-01-15T06:08:58.803Z,101386.09
2023-01-15T06:11:25.386Z,101389.31
2023-01-15T06:13:52.046Z,101381.88
2023-01-15T06:16:19.013Z,101384.16
2023-01-15T06:18:46.261Z,101386.69
2023-01-15T06:21:13.952Z,101397.97
2023-01-15T06:23:41.614Z,101385.38
2023-01-15T06:26:18.251Z,101397.75
2023-01-15T06:28:45.849Z,101394.53
2023-01-15T06:31:14.924Z,101392.91
2023-01-15T06:33:41.840Z,101385.94
2023-01-15T06:36:12.402Z,101388.06
2023-01-15T06:38:39.481Z,101384.63
2023-01-15T06:41:26.576Z,101375.84
2023-01-15T06:44:11.889Z,101379.69
2023-01-15T06:47:02.393Z,101379.03
2023-01-15T06:49:29.366Z,101375.50
2023-01-15T06:51:55.957Z,101373.75
2023-01-15T06:54:22.527Z,101379.09
2023-01-15T06:56:49.198Z,101388.97
2023-01-15T06:59:15.832Z,101385.53
2023-01-15T07:01:42.657Z,101380.19
2023-01-15T07:04:09.308Z,101383.81
2023-01-15T07:06:35.884Z,101376.75
2023-01-15T07:09:02.700Z,101373.97
2023-01-15T07:11:29.323Z,101380.09
2023-01-15T07:14:05.972Z,101372.81
2023-01-15T07:16:36.507Z,101370.69
2023-01-15T07:19:04.223Z,101365.16
2023-01-15T07:21:31.023Z,101358.66
2023-01-15T07:24:01.629Z,101352.03
2023-01-15T07:26:28.241Z,101349.16
2023-01-15T07:28:54.814Z,101353.44
2023-01-15T07:31:21.702Z,101345.50
2023-01-15T07:33:48.338Z,101348.09
2023-01-15T07:36:14.941Z,101341.97
2023-01-15T07:38:41.619Z,101346.56
2023-01-15T07:41:26.406Z,101346.78
2023-01-15T07:44:11.134Z,101343.34
2023-01-15T07:46:56.101Z,101332.84
2023-01-15T07:49:40.929Z,101330.06
2023-01-15T07:52:07.410Z,101335.31
2023-01-15T07:54:33.965Z,101333.50
2023-01-15T07:57:00.735Z,101325.38
2023-01-15T07:59:27.244Z,101329.56
2023-01-15T08:01:53.912Z,101337.38
2023-01-15T08:04:20.484Z,101329.91
2023-01-15T08:06:47.013Z,101327.88
2023-01-15T08:09:13.680Z,101324.16
2023-01-15T08:11:58.795Z,101321.25
2023-01-15T08:14:43.794Z,101323.72
2023-01-15T08:17:10.503Z,101320.84
2023-01-15T08:19:37.088Z,101323.31
2023-01-15T08:22:03.664Z,101323.13
2023-01-15T08:24:30.330Z,101331.91
2023-01-15T08:26:56.952Z,101332.56
2023-01-15T08:29:23.502Z,101326.13
2023-01-15T08:31:49.980Z,101326.88
2023-01-15T08:34:16.531Z,101325.81
2023-01-15T08:36:43.098Z,101323.97
2023-01-15T08:39:10.030Z,101324.75
2023-01-15T08:41:36.566Z,101320.97
2023-01-15T08:44:03.142Z,101317.25
2023-01-15T08:46:29.728Z,101314.34
2023-01-15T08:48:56.294Z,101307.81
2023-01-15T08:51:22.868Z,101311.06
2023-01-15T08:53:49.564Z,101313.28
2023-01-15T08:56:18.397Z,101309.22
2023-01-15T08:58:45.629Z,101308.81
2023-01-15T09:01:15.895Z,101304.63
2023-01-15T09:03:43.031Z,101309.22
2023-01-15T09:06:11.385Z,101305.00
2023-01-15T09:08:38.116Z,101299.34
2023-01-15T09:11:06.177Z,101299.03
2023-01-15T09:13:32.771Z,101297.31
2023-01-15T09:16:00.529Z,101287.22
2023-01-15T09:18:27.530Z,101281.44
2023-01-15T09:20:54.252Z,101279.25
2023-01-15T09:23:20.797Z,101282.91
2023-01-15T09:25:55.046Z,101275.63
2023-01-15T09:28:21.783Z,101270.88
2023-01-15T09:30:48.438Z,101277.63
2023-01-15T09:33:14.962Z,101278.25
2023-01-15T09:35:43.203Z,101268.16
2023-01-15T09:38:15.587Z,101265.25
2023-01-15T09:40:51.409Z,101260.38
2023-01-15T09:43:42.764Z,101261.66
2023-01-15T09:46:22.373Z,101259.38
2023-01-15T09:49:04.320Z,101261.19
2023-01-15T09:51:39.158Z,101250.94
2023-01-15T09:54:38.809Z,101253.38
2023-01-15T09:57:11.934Z,101253.66
2023-01-15T09:59:41.087Z,101252.34
2023-01-15T10:02:28.547Z,101248.47
2023-01-15T10:05:00.121Z,101251.63
2023-01-15T10:07:44.952Z,101246.91
2023-01-15T10:10:19.042Z,101238.88
2023-01-15T10:12:46.206Z,101239.13
2023-01-15T10:15:37.434Z,101243.19
2023-01-15T10:18:08.093Z,101232.56
2023-01-15T10:20:55.468Z,101232.09
2023-01-15T10:23:40.320Z,101235.03
2023-01-15T10:26:16.565Z,101233.81
2023-01-15T10:28:55.179Z,101231.75
2023-01-15T10:31:24.674Z,101233.72
2023-01-15T10:34:03.536Z,101216.59
2023-01-15T10:36:43.214Z,101216.00
2023-01-15T10:39:16.310Z,101202.59
2023-01-15T10:42:09.582Z,101191.00
2023-01-15T10:45:00.488Z,101188.94
2023-01-15T10:47:32.702Z,101196.03
2023-01-15T10:50:00.176Z,101196.16
2023-01-15T10:52:33.852Z,101186.84
2023-01-15T10:55:18.767Z,101183.94
2023-01-15T10:58:11.304Z,101182.94
2023-01-15T11:00:39.032Z,101174.25
2023-01-15T11:03:15.257Z,101172.38
2023-01-15T11:05:46.654Z,101162.50
2023-01-15T11:11:20.830Z,101156.06
2023-01-15T11:14:15.856Z,101150.78
2023-01-15T11:17:02.338Z,101131.38
2023-01-15T11:19:37.204Z,101127.66
2023-01-15T11:22:18.543Z,101115.03
2023-01-15T11:24:48.942Z,101102.38
2023-01-15T11:27:18.490Z,101094.38
2023-01-15T11:29:45.568Z,101091.56
2023-01-15T11:32:45.616Z,101079.53
2023-01-15T11:35:17.620Z,101063.28
2023-01-15T11:37:44.552Z,101038.47
2023-01-15T11:40:20.758Z,101029.16
2023-01-15T11:43:06.977Z,101035.31
2023-01-15T11:45:52.612Z,101029.56
2023-01-15T11:48:39.677Z,100999.69
2023-01-15T11:51:16.708Z,100992.47
2023-01-15T11:53:49.523Z,101011.44
2023-01-15T11:56:18.661Z,101000.81
2023-01-15T11:58:48.285Z,100985.81
2023-01-15T12:01:23.943Z,100973.88
2023-01-15T12:03:50.761Z,100960.41
2023-01-15T12:06:19.837Z,100961.81
2023-01-15T12:08:51.942Z,100943.06
2023-01-15T12:11:26.758Z,100953.41
2023-01-15T12:14:09.220Z,100947.59
2023-01-15T12:17:09.469Z,100947.00
2023-01-15T12:19:57.029Z,100948.81
2023-01-15T12:22:33.236Z,100933.50
2023-01-15T12:25:02.791Z,100929.13
2023-01-15T12:27:38.154Z,100925.56
2023-01-15T12:30:41.959Z,100915.31
2023-01-15T12:33:32.845Z,100913.34
2023-01-15T12:36:28.334Z,100922.88
2023-01-15T12:39:01.664Z,100918.44
2023-01-15T12:41:48.316Z,100928.03
2023-01-15T12:44:39.178Z,100915.56
2023-01-15T12:47:10.201Z,100918.13
2023-01-15T12:49:42.503Z,100906.06
2023-01-15T12:52:15.612Z,100896.75
2023-01-15T12:54:49.860Z,100889.84
2023-01-15T12:57:19.351Z,100895.81
2023-01-15T12:59:54.632Z,100890.72
2023-01-15T13:02:57.860Z,100881.28
2023-01-15T13:05:39.003Z,100874.78
2023-01-15T13:08:27.628Z,100850.56
2023-01-15T13:10:54.230Z,100849.19
2023-01-15T13:13:26.664Z,100838.03
2023-01-15T13:15:58.638Z,100839.47
2023-01-15T13:18:36.951Z,100829.06
2023-01-15T13:21:14.849Z,100821.13
2023-01-15T13:23:48.175Z,100817.63
2023-01-15T13:26:27.840Z,100806.81
2023-01-15T13:29:42.157Z,100801.44
2023-01-15T13:32:12.517Z,100795.50
2023-01-15T13:34:49.539Z,100796.91
2023-01-15T13:37:27.067Z,100787.53
2023-01-15T13:40:00.256Z,100779.88
2023-01-15T13:42:38.057Z,100779.41
2023-01-15T13:45:37.346Z,100768.38
2023-01-15T13:48:47.267Z,100770.91
2023-01-15T13:51:43.376Z,100761.69
2023-01-15T13:54:14.461Z,100752.47
2023-01-15T13:56:41.008Z,100749.47
2023-01-15T13:59:44.069Z,100749.19
2023-01-15T14:02:37.552Z,100751.88
2023-01-15T14:05:22.850Z,100745.78
2023-01-15T14:07:50.519Z,100738.69
2023-01-15T14:10:17.281Z,100745.09
2023-01-15T14:12:53.339Z,100744.06
2023-01-15T14:15:48.763Z,100736.84
2023-01-15T14:18:37.364Z,100736.84
2023-01-15T14:21:28.690Z,100741.53
2023-01-15T14:24:08.283Z,100735.59
2023-01-15T14:26:43.544Z,100729.25
2023-01-15T14:29:44.163Z,100734.63
2023-01-15T14:32:13.657Z,100741.44
2023-01-15T14:34:41.049Z,100724.75
2023-01-15T14:37:24.758Z,100719.63
2023-01-15T14:39:56.095Z,100722.63
2023-01-15T14:42:41.037Z,100725.59
2023-01-15T14:45:13.501Z,100729.28
2023-01-15T14:47:48.796Z,100734.81
2023-01-15T14:50:33.470Z,100734.94
2023-01-15T14:53:15.545Z,100736.66
2023-01-15T14:56:21.369Z,100751.28
2023-01-15T14:58:53.931Z,100750.56
2023-01-15T15:01:42.275Z,100755.38
2023-01-15T15:04:32.998Z,100761.06
2023-01-15T15:07:18.956Z,100758.50
2023-01-15T15:09:54.929Z,100759.66
2023-01-15T15:12:36.279Z,100749.16
2023-01-15T15:15:23.411Z,100751.13
2023-01-15T15:18:08.698Z,100756.81
2023-01-15T15:20:55.272Z,100753.41
2023-01-15T15:23:31.327Z,100754.53
2023-01-15T15:26:03.644Z,100748.59
2023-01-15T15:28:30.432Z,100732.72
2023-01-15T15:31:01.551Z,100740.94
2023-01-15T15:33:38.105Z,100735.94
2023-01-15T15:36:05.873Z,100723.75
2023-01-15T15:38:33.913Z,100725.88
2023-01-15T15:41:04.420Z,100719.22
2023-01-15T15:44:10.431Z,100715.25
2023-01-15T15:47:00.409Z,100706.88
2023-01-15T15:49:26.993Z,100704.91
2023-01-15T15:51:54.290Z,100699.22
2023-01-15T15:54:28.282Z,100696.94
2023-01-15T15:57:14.258Z,100705.56
2023-01-15T15:59:50.228Z,100697.94
2023-01-15T16:02:36.583Z,100700.03
2023-01-15T16:05:24.910Z,100701.28
2023-01-15T16:07:53.072Z,100688.97
2023-01-15T16:10:31.379Z,100701.72
2023-01-15T16:13:00.429Z,100697.47
2023-01-15T16:15:30.246Z,100698.72
2023-01-15T16:17:57.630Z,100696.19
2023-01-15T16:20:25.006Z,100695.47
2023-01-15T16:22:51.565Z,100696.47
2023-01-15T16:25:37.773Z,100696.59
2023-01-15T16:28:04.949Z,100690.38
2023-01-15T16:30:32.395Z,100691.34
2023-01-15T16:33:04.532Z,100696.88
2023-01-15T16:35:31.877Z,100702.38
2023-01-15T16:38:00.902Z,100700.81
2023-01-15T16:40:31.466Z,100698.38
2023-01-15T16:43:23.649Z,100697.25
2023-01-15T16:45:57.371Z,100699.94
2023-01-15T16:48:38.510Z,100703.34
2023-01-15T16:51:24.251Z,100708.72
2023-01-15T16:53:50.814Z,100704.34
2023-01-15T16:56:26.673Z,100710.97
2023-01-15T16:58:53.282Z,100712.91
2023-01-15T17:01:46.760Z,100718.25
2023-01-15T17:04:43.215Z,100724.16
2023-01-15T17:07:39.876Z,100729.94
2023-01-15T17:10:19.263Z,100720.75
2023-01-15T17:12:45.814Z,100723.44
2023-01-15T17:15:15.272Z,100722.19
2023-01-15T17:17:45.906Z,100720.34
2023-01-15T17:20:14.111Z,100718.78
2023-01-15T17:22:42.632Z,100717.34
2023-01-15T17:25:26.224Z,100723.94
2023-01-15T17:27:54.601Z,100721.38
2023-01-15T17:30:21.786Z,100711.63
2023-01-15T17:32:48.751Z,100722.50
2023-01-15T17:35:28.078Z,100709.19
2023-01-15T17:37:54.909Z,100707.50
2023-01-15T17:40:22.230Z,100714.97
2023-01-15T17:42:48.959Z,100711.56
2023-01-15T17:45:22.613Z,100700.84
2023-01-15T17:47:49.173Z,100701.34
2023-01-15T17:50:16.403Z,100695.56
2023-01-15T17:52:43.581Z,100694.22
2023-01-15T17:55:31.600Z,100693.75
2023-01-15T17:58:16.712Z,100689.78
2023-01-15T18:07:33.917Z,100676.41
2023-01-15T18:10:00.796Z,100664.13
2023-01-15T18:12:27.428Z,100679.38
2023-01-15T18:14:53.928Z,100673.28
2023-01-15T18:17:20.518Z,100670.72
2023-01-15T18:19:47.003Z,100671.00
2023-01-15T18:22:13.880Z,100678.72
2023-01-15T18:24:40.767Z,100682.88
2023-01-15T18:27:07.439Z,100696.81
2023-01-15T18:29:38.586Z,100705.38
2023-01-15T18:32:05.502Z,100703.09
2023-01-15T18:34:32.045Z,100708.84
2023-01-15T18:36:58.703Z,100703.84
2023-01-15T18:39:30.741Z,100711.19
2023-01-15T18:41:57.498Z,100707.78
2023-01-15T18:44:43.832Z,100709.47
2023-01-15T18:47:18.275Z,100711.28
2023-01-15T18:49:46.288Z,100706.94
2023-01-15T18:52:35.078Z,100708.72
2023-01-15T18:55:02.190Z,100694.47
2023-01-15T18:57:28.891Z,100691.06
2023-01-15T18:59:55.435Z,100694.75
2023-01-15T19:02:22.237Z,100690.34
2023-01-15T19:04:48.962Z,100707.03
2023-01-15T19:07:16.563Z,100708.63
2023-01-15T19:09:43.251Z,100698.50
2023-01-15T19:12:10.296Z,100704.44
2023-01-15T19:14:55.381Z,100706.16
2023-01-15T19:17:42.974Z,100707.00
2023-01-15T19:20:12.104Z,100700.78
2023-01-15T19:22:57.777Z,100688.22
2023-01-15T19:25:25.956Z,100686.38
2023-01-15T19:28:16.160Z,100677.63
2023-01-15T19:30:43.449Z,100683.84
2023-01-15T19:33:10.247Z,100696.53
2023-01-15T19:35:37.849Z,100695.66
2023-01-15T19:38:08.235Z,100689.56
2023-01-15T19:40:37.808Z,100689.72
2023-01-15T19:43:23.050Z,100685.47
2023-01-15T19:46:08.237Z,100686.72
2023-01-15T19:48:53.158Z,100678.06
2023-01-15T19:51:21.149Z,100684.53
2023-01-15T19:53:47.899Z,100669.53
2023-01-15T19:56:14.441Z,100668.94
2023-01-15T19:58:41.094Z,100660.41
2023-01-15T20:01:13.780Z,100663.25
2023-01-15T20:03:40.393Z,100660.69
2023-01-15T20:06:08.574Z,100665.31
2023-01-15T20:08:35.243Z,100665.19
2023-01-15T20:11:01.789Z,100664.31
2023-01-15T20:13:47.005Z,100675.53
2023-01-15T20:16:17.892Z,100673.59
2023-01-15T20:18:45.231Z,100669.47
2023-01-15T20:21:15.663Z,100660.69
2023-01-15T20:23:43.303Z,100659.25
2023-01-15T20:26:12.528Z,100671.19
2023-01-15T20:28:40.876Z,100674.13
2023-01-15T20:31:07.596Z,100674.34
2023-01-15T20:33:34.069Z,100657.31
2023-01-15T20:36:04.150Z,100664.38
2023-01-15T20:38:31.139Z,100646.72
2023-01-15T20:41:17.633Z,100646.44
2023-01-15T20:44:02.469Z,100640.25
2023-01-15T20:46:29.048Z,100631.25
2023-01-15T20:49:14.492Z,100628.44
2023-01-15T20:51:41.054Z,100630.16
2023-01-15T20:54:07.618Z,100618.31
2023-01-15T20:56:34.222Z,100612.59
2023-01-15T20:59:00.830Z,100611.97
2023-01-15T21:01:28.641Z,100605.59
2023-01-15T21:03:55.376Z,100602.94
2023-01-15T21:06:21.972Z,100590.78
2023-01-15T21:08:48.650Z,100578.63
2023-01-15T21:11:15.230Z,100579.34
2023-01-15T21:13:44.970Z,100578.47
2023-01-15T21:16:13.079Z,100572.38
2023-01-15T21:18:43.207Z,100577.75
2023-01-15T21:21:10.661Z,100588.47
2023-01-15T21:23:37.362Z,100590.56
2023-01-15T21:26:04.010Z,100586.16
2023-01-15T21:28:30.589Z,100568.41
2023-01-15T21:30:57.577Z,100570.22
2023-01-15T21:33:24.185Z,100559.50
2023-01-15T21:35:50.717Z,100579.13
2023-01-15T21:38:17.300Z,100568.53
2023-01-15T21:40:43.936Z,100567.81
2023-01-15T21:43:29.592Z,100566.97
2023-01-15T21:46:14.471Z,100565.50
2023-01-15T21:48:41.085Z,100564.91
2023-01-15T21:51:07.714Z,100555.28
2023-01-15T21:53:34.323Z,100558.34
2023-01-15T21:56:00.990Z,100549.94
2023-01-15T21:58:27.713Z,100550.94
2023-01-15T22:00:54.329Z,100541.72
2023-01-15T22:03:20.962Z,100531.72
2023-01-15T22:05:47.462Z,100521.78
2023-01-15T22:08:13.948Z,100526.41
2023-01-15T22:11:00.786Z,100520.22
2023-01-15T22:13:27.315Z,100522.75
2023-01-15T22:15:54.818Z,100529.66
2023-01-15T22:18:26.101Z,100525.91
2023-01-15T22:20:59.732Z,100537.34
2023-01-15T22:23:26.718Z,100539.31
2023-01-15T22:25:53.849Z,100544.88
2023-01-15T22:28:20.617Z,100543.44
2023-01-15T22:30:47.742Z,100543.56
2023-01-15T22:33:15.354Z,100544.41
2023-01-15T22:35:41.967Z,100536.28
2023-01-15T22:38:08.845Z,100537.97
2023-01-15T22:40:36.411Z,100538.81
2023-01-15T22:43:03.039Z,100536.38
2023-01-15T22:45:29.629Z,100528.75
2023-01-15T22:47:56.152Z,100528.34
2023-01-15T22:50:22.716Z,100521.41
2023-01-15T22:53:12.110Z,100518.84
2023-01-15T22:55:38.616Z,100515.09
2023-01-15T22:58:05.179Z,100509.72
2023-01-15T23:00:31.823Z,100518.97
2023-01-15T23:03:05.203Z,100506.81
2023-01-15T23:05:36.572Z,100503.78
2023-01-15T23:08:03.458Z,100515.69
2023-01-15T23:10:30.045Z,100499.41
2023-01-15T23:12:56.598Z,100497.38
2023-01-15T23:15:23.091Z,100499.31
2023-01-15T23:17:50.344Z,100491.41
2023-01-15T23:20:16.922Z,100487.53
2023-01-15T23:22:43.553Z,100494.22
2023-01-15T23:25:10.186Z,100495.78
2023-01-15T23:27:36.974Z,100489.56
2023-01-15T23:30:04.360Z,100492.47
2023-01-15T23:32:30.928Z,100491.34
2023-01-15T23:34:57.522Z,100487.56
2023-01-15T23:37:24.076Z,100485.63
2023-01-15T23:39:50.759Z,100474.31
2023-01-15T23:42:36.046Z,100479.28
2023-01-15T23:45:21.087Z,100474.75
2023-01-15T23:47:47.769Z,100471.72
2023-01-15T23:50:14.379Z,100473.22
2023-01-15T23:52:40.909Z,100471.25
2023-01-15T23:55:07.813Z,100473.44
2023-01-15T23:57:34.506Z,100462.97
